createdAt,value
2018-01-24T00:00:47.840Z,83.30
2018-01-24T00:03:20.276Z,83.80
2018-01-24T00:05:51.195Z,83.30
2018-01-24T00:08:22.621Z,83.20
2018-01-24T00:10:53.553Z,83.20
2018-01-24T00:13:25.233Z,83.10
2018-01-24T00:15:56.756Z,83.00
2018-01-24T00:18:28.639Z,82.80
2018-01-24T00:20:59.841Z,83.10
2018-01-24T00:23:32.089Z,83.00
2018-01-24T00:26:05.837Z,83.90
2018-01-24T00:28:38.294Z,84.50
2018-01-24T00:31:10.980Z,85.20
2018-01-24T00:33:42.222Z,84.80
2018-01-24T00:36:13.723Z,84.80
2018-01-24T00:38:46.979Z,85.00
2018-01-24T00:41:20.937Z,85.00
2018-01-24T00:43:52.791Z,85.00
2018-01-24T00:46:24.069Z,84.90
2018-01-24T00:48:55.870Z,84.70
2018-01-24T00:51:26.867Z,84.80
2018-01-24T00:54:00.468Z,84.50
2018-01-24T00:56:33.986Z,84.30
2018-01-24T00:59:04.532Z,84.30
2018-01-24T01:01:37.004Z,83.90
2018-01-24T01:04:10.226Z,83.80
2018-01-24T01:06:43.811Z,83.40
2018-01-24T01:09:16.713Z,83.40
2018-01-24T01:11:53.883Z,83.50
2018-01-24T01:14:26.722Z,83.40
2018-01-24T01:16:57.941Z,83.50
2018-01-24T01:19:29.319Z,83.30
2018-01-24T01:22:01.330Z,83.50
2018-01-24T01:24:34.261Z,83.60
2018-01-24T01:27:06.118Z,83.50
2018-01-24T01:29:39.649Z,83.30
2018-01-24T01:32:13.432Z,83.50
2018-01-24T01:34:45.618Z,83.50
2018-01-24T01:37:16.895Z,83.90
2018-01-24T01:39:49.740Z,84.20
2018-01-24T01:42:21.104Z,84.40
2018-01-24T01:44:54.134Z,84.60
2018-01-24T01:47:26.915Z,84.80
2018-01-24T01:50:01.512Z,85.00
2018-01-24T01:52:35.839Z,85.00
2018-01-24T01:55:08.905Z,85.10
2018-01-24T01:57:40.662Z,85.30
2018-01-24T02:00:14.176Z,85.30
2018-01-24T02:02:48.196Z,85.30
2018-01-24T02:05:23.306Z,85.30
2018-01-24T02:07:57.235Z,85.70
2018-01-24T02:10:30.610Z,85.70
2018-01-24T02:13:04.041Z,85.70
2018-01-24T02:15:36.120Z,85.70
2018-01-24T02:18:07.579Z,85.90
2018-01-24T02:20:40.522Z,86.00
2018-01-24T02:23:12.908Z,86.20
2018-01-24T02:25:45.373Z,86.20
2018-01-24T02:28:16.589Z,86.20
2018-01-24T02:30:48.619Z,86.40
2018-01-24T06:39:31.676Z,82.10
2018-01-24T06:42:09.865Z,83.70
2018-01-24T06:44:47.440Z,83.10
2018-01-24T06:47:23.096Z,84.00
2018-01-24T06:50:01.180Z,84.30
2018-01-24T06:52:41.797Z,84.30
2018-01-24T06:55:20.595Z,84.40
2018-01-24T06:57:57.534Z,84.40
2018-01-24T07:00:33.095Z,84.30
2018-01-24T07:03:08.564Z,84.30
2018-01-24T07:05:42.290Z,84.30
2018-01-24T07:08:14.789Z,84.20
2018-01-24T07:10:52.938Z,84.10
2018-01-24T07:15:36.835Z,83.90
2018-01-24T07:18:09.137Z,83.80
2018-01-24T07:20:43.916Z,83.70
2018-01-24T07:23:21.375Z,83.50
2018-01-24T07:25:55.284Z,83.50
2018-01-24T07:28:32.517Z,83.50
2018-01-24T07:31:04.457Z,83.50
2018-01-24T07:33:43.288Z,83.20
2018-01-24T07:36:15.795Z,83.20
2018-01-24T07:38:50.246Z,83.00
2018-01-24T07:41:28.023Z,83.00
2018-01-24T07:44:01.360Z,83.00
2018-01-24T07:46:35.635Z,82.60
2018-01-24T07:49:12.556Z,82.60
2018-01-24T07:54:28.595Z,82.40
2018-01-24T07:57:01.583Z,82.30
2018-01-24T07:59:37.556Z,82.30
2018-01-24T08:02:09.291Z,82.40
2018-01-24T08:04:44.441Z,82.40
2018-01-24T08:07:16.250Z,82.50
2018-01-24T08:09:49.500Z,82.60
2018-01-24T08:12:23.518Z,82.70
2018-01-24T08:14:58.528Z,82.70
2018-01-24T08:17:33.688Z,82.80
2018-01-24T08:20:08.421Z,82.90
2018-01-24T08:22:42.872Z,83.00
2018-01-24T08:25:15.468Z,82.80
2018-01-24T08:27:48.673Z,82.80
2018-01-24T08:30:21.417Z,82.80
2018-01-24T08:32:54.482Z,82.80
2018-01-24T08:35:27.633Z,82.70
2018-01-24T08:38:00.107Z,82.90
2018-01-24T08:40:36.471Z,82.80
2018-01-24T08:43:24.726Z,82.60
2018-01-24T08:46:00.493Z,82.60
2018-01-24T08:48:33.078Z,82.50
2018-01-24T08:51:06.976Z,82.50
2018-01-24T08:53:43.606Z,82.50
2018-01-24T08:56:23.351Z,82.50
2018-01-24T08:58:58.375Z,82.60
2018-01-24T09:01:45.703Z,82.50
2018-01-24T09:04:21.689Z,82.40
2018-01-24T09:06:54.690Z,82.50
2018-01-24T09:09:30.622Z,82.40
2018-01-24T09:12:16.174Z,82.30
2018-01-24T09:14:49.200Z,82.10
2018-01-24T09:17:31.305Z,81.70
2018-01-24T09:20:06.804Z,81.70
2018-01-24T09:22:42.596Z,81.40
2018-01-24T09:25:18.073Z,81.30
2018-01-24T09:27:52.197Z,81.10
2018-01-24T09:30:26.108Z,80.90
2018-01-24T09:32:58.989Z,80.80
2018-01-24T09:35:33.964Z,80.50
2018-01-24T09:38:09.620Z,80.30
2018-01-24T09:40:52.233Z,80.10
2018-01-24T09:44:04.021Z,79.90
2018-01-24T09:46:38.495Z,79.80
2018-01-24T09:49:12.488Z,79.60
2018-01-24T09:51:46.367Z,79.40
2018-01-24T09:54:27.013Z,79.10
2018-01-24T09:57:06.898Z,79.10
2018-01-24T09:59:53.033Z,79.10
2018-01-24T10:02:34.045Z,78.80
2018-01-24T10:05:10.228Z,78.70
2018-01-24T10:07:49.526Z,78.70
2018-01-24T10:10:35.228Z,78.70
2018-01-24T10:13:14.048Z,78.60
2018-01-24T10:15:45.800Z,78.50
2018-01-24T10:18:27.019Z,78.60
2018-01-24T10:21:10.768Z,78.60
2018-01-24T10:23:45.404Z,79.40
2018-01-24T10:26:30.272Z,78.50
2018-01-24T10:29:02.737Z,78.70
2018-01-24T10:31:37.111Z,78.60
2018-01-24T10:34:09.004Z,78.40
2018-01-24T10:36:43.121Z,78.20
2018-01-24T10:39:21.212Z,78.50
2018-01-24T10:41:56.105Z,79.10
2018-01-24T10:44:33.025Z,78.40
2018-01-24T10:47:06.029Z,78.50
2018-01-24T10:49:39.275Z,78.60
2018-01-24T10:52:12.590Z,78.30
2018-01-24T10:54:51.672Z,78.30
2018-01-24T10:57:28.864Z,78.40
2018-01-24T11:00:06.906Z,77.50
2018-01-24T11:02:46.320Z,78.50
2018-01-24T11:05:19.726Z,78.30
2018-01-24T11:07:52.499Z,78.50
2018-01-24T11:10:28.805Z,78.50
2018-01-24T11:13:03.846Z,78.50
2018-01-24T11:15:41.641Z,78.70
2018-01-24T11:18:15.740Z,78.70
2018-01-24T11:20:51.320Z,78.60
2018-01-24T11:23:27.113Z,78.60
2018-01-24T11:26:02.204Z,78.50
2018-01-24T11:28:37.573Z,78.50
2018-01-24T11:31:16.103Z,78.20
2018-01-24T11:33:50.930Z,78.30
2018-01-24T11:36:23.572Z,78.30
2018-01-24T11:38:56.923Z,78.00
2018-01-24T11:41:38.411Z,77.60
2018-01-24T11:44:13.491Z,77.40
2018-01-24T11:46:47.980Z,77.10
2018-01-24T11:49:27.482Z,77.00
2018-01-24T11:55:01.205Z,76.50
2018-01-24T11:57:37.439Z,76.60
2018-01-24T12:00:12.504Z,76.50
2018-01-24T12:02:47.584Z,76.40
2018-01-24T12:05:25.546Z,76.30
2018-01-24T12:07:58.081Z,76.90
2018-01-24T12:10:31.068Z,76.20
2018-01-24T12:13:10.264Z,76.20
2018-01-24T12:15:45.778Z,76.20
2018-01-24T12:18:19.477Z,76.20
2018-01-24T12:20:59.953Z,75.80
2018-01-24T12:23:38.838Z,75.90
2018-01-24T12:26:12.392Z,75.80
2018-01-24T12:28:48.682Z,75.80
2018-01-24T12:31:25.456Z,75.70
2018-01-24T12:34:00.456Z,75.60
2018-01-24T12:36:35.214Z,75.50
2018-01-24T12:39:18.396Z,75.60
2018-01-24T12:41:53.908Z,75.30
2018-01-24T12:44:28.896Z,75.30
2018-01-24T12:47:10.725Z,74.80
2018-01-24T12:49:48.670Z,74.50
2018-01-24T12:52:28.232Z,74.40
2018-01-24T12:55:11.974Z,74.20
2018-01-24T12:57:49.464Z,74.20
2018-01-24T13:00:23.688Z,74.20
2018-01-24T13:03:00.703Z,74.00
2018-01-24T13:05:47.372Z,74.10
2018-01-24T13:08:35.105Z,73.90
2018-01-24T13:11:12.535Z,74.60
2018-01-24T13:13:49.140Z,74.60
2018-01-24T13:16:21.397Z,74.60
2018-01-24T13:18:54.514Z,74.80
2018-01-24T13:21:32.644Z,74.70
2018-01-24T13:24:09.298Z,74.70
2018-01-24T13:26:42.645Z,74.50
2018-01-24T13:29:16.103Z,76.00
2018-01-24T13:31:53.726Z,74.90
2018-01-24T13:34:26.994Z,75.30
2018-01-24T13:37:00.467Z,75.30
2018-01-24T13:39:36.196Z,75.40
2018-01-24T13:42:13.303Z,75.80
2018-01-24T13:44:48.701Z,75.70
2018-01-24T13:47:24.792Z,75.70
2018-01-24T13:49:58.193Z,75.70
2018-01-24T13:52:31.950Z,75.70
2018-01-24T13:55:09.740Z,75.50
2018-01-24T13:57:44.122Z,75.40
2018-01-24T14:00:22.995Z,75.30
2018-01-24T14:03:01.506Z,75.50
2018-01-24T14:05:38.791Z,75.30
2018-01-24T14:08:14.863Z,75.10
2018-01-24T14:10:51.255Z,75.10
2018-01-24T14:13:24.859Z,74.80
2018-01-24T14:15:58.112Z,74.80
2018-01-24T14:18:32.394Z,74.50
2018-01-24T14:21:16.198Z,74.60
2018-01-24T14:23:53.716Z,74.70
2018-01-24T14:26:32.450Z,74.80
2018-01-24T14:29:07.325Z,74.80
2018-01-24T14:31:41.551Z,74.60
2018-01-24T14:34:15.501Z,74.60
2018-01-24T14:39:37.775Z,75.20
2018-01-24T14:42:12.670Z,75.20
2018-01-24T14:44:49.232Z,75.50
2018-01-24T14:47:20.840Z,75.30
2018-01-24T14:50:03.526Z,75.30
2018-01-24T14:52:35.165Z,75.50
2018-01-24T14:55:09.723Z,75.80
2018-01-24T14:57:42.754Z,75.80
2018-01-24T15:00:17.724Z,76.00
2018-01-24T15:02:53.354Z,76.00
2018-01-24T15:05:25.839Z,76.00
2018-01-24T15:07:59.417Z,75.90
2018-01-24T15:10:31.858Z,76.00
2018-01-24T15:13:05.817Z,76.40
2018-01-24T15:15:39.312Z,76.30
2018-01-24T15:18:15.867Z,76.60
2018-01-24T15:20:51.347Z,76.50
2018-01-24T15:23:36.221Z,76.40
2018-01-24T15:26:08.881Z,76.60
2018-01-24T15:28:42.901Z,76.40
2018-01-24T15:31:17.420Z,76.40
2018-01-24T15:33:52.246Z,76.30
2018-01-24T15:36:24.483Z,76.10
2018-01-24T15:38:59.834Z,75.50
2018-01-24T15:41:37.411Z,75.70
2018-01-24T15:44:15.507Z,75.60
2018-01-24T15:46:51.077Z,75.40
2018-01-24T15:49:27.373Z,75.30
2018-01-24T15:52:03.499Z,75.30
2018-01-24T15:54:42.273Z,75.30
2018-01-24T15:57:17.040Z,75.40
2018-01-24T15:59:58.149Z,75.60
2018-01-24T16:02:39.132Z,75.80
2018-01-24T16:05:23.078Z,75.60
2018-01-24T16:07:59.116Z,75.50
2018-01-24T16:10:38.282Z,75.50
2018-01-24T16:13:16.671Z,74.80
2018-01-24T16:15:50.111Z,76.90
2018-01-24T16:18:23.808Z,75.50
2018-01-24T16:20:57.887Z,75.50
2018-01-24T16:23:34.560Z,75.70
2018-01-24T16:26:08.112Z,75.10
2018-01-24T16:28:42.916Z,73.80
2018-01-24T16:31:18.229Z,73.70
2018-01-24T16:33:53.414Z,73.40
2018-01-24T16:36:28.157Z,73.50
2018-01-24T16:39:04.083Z,73.30
2018-01-24T16:41:38.800Z,72.50
2018-01-24T16:44:11.936Z,73.50
2018-01-24T16:46:46.812Z,71.60
2018-01-24T16:49:20.122Z,71.60
2018-01-24T16:51:54.473Z,70.60
2018-01-24T16:54:32.499Z,70.90
2018-01-24T16:57:05.810Z,70.50
2018-01-24T16:59:38.991Z,70.50
2018-01-24T17:02:14.819Z,70.60
2018-01-24T17:04:48.113Z,70.80
2018-01-24T17:07:22.372Z,71.00
2018-01-24T17:09:58.488Z,71.00
2018-01-24T17:12:31.284Z,71.00
2018-01-24T17:15:04.824Z,70.80
2018-01-24T17:17:37.055Z,70.50
2018-01-24T17:20:10.934Z,70.30
2018-01-24T17:22:43.467Z,70.30
2018-01-24T17:25:17.857Z,69.90
2018-01-24T17:27:51.634Z,69.30
2018-01-24T17:30:24.608Z,69.30
2018-01-24T17:33:06.232Z,69.30
2018-01-24T17:35:42.933Z,69.50
2018-01-24T17:38:16.330Z,69.50
2018-01-24T17:40:48.218Z,70.00
2018-01-24T17:43:20.397Z,69.40
2018-01-24T17:45:53.252Z,69.20
2018-01-24T17:48:25.229Z,69.00
2018-01-24T17:50:58.310Z,68.90
2018-01-24T17:53:30.285Z,68.80
2018-01-24T17:56:02.771Z,68.80
2018-01-24T17:58:36.074Z,68.50
2018-01-24T18:01:08.105Z,68.60
2018-01-24T18:03:44.247Z,68.60
2018-01-24T18:06:23.555Z,68.40
2018-01-24T18:08:56.364Z,68.70
2018-01-24T18:11:32.734Z,68.80
2018-01-24T18:14:09.647Z,68.80
2018-01-24T18:16:44.063Z,68.90
2018-01-24T18:19:17.644Z,68.90
2018-01-24T18:21:54.818Z,68.70
2018-01-24T18:27:09.045Z,69.10
2018-01-24T18:29:47.332Z,69.00
2018-01-24T18:32:19.648Z,69.00
2018-01-24T18:34:53.795Z,69.10
2018-01-24T18:37:28.022Z,69.10
2018-01-24T18:40:01.073Z,69.00
2018-01-24T18:42:35.699Z,69.20
2018-01-24T18:45:14.101Z,69.20
2018-01-24T18:47:46.983Z,69.40
2018-01-24T18:50:22.904Z,69.80
2018-01-24T18:52:55.382Z,69.80
2018-01-24T18:55:28.038Z,70.00
2018-01-24T18:58:00.719Z,70.10
2018-01-24T19:00:32.223Z,70.30
2018-01-24T19:03:06.812Z,70.40
2018-01-24T19:05:52.453Z,70.40
2018-01-24T19:08:29.918Z,70.30
2018-01-24T19:11:04.003Z,70.80
2018-01-24T19:13:38.900Z,70.80
2018-01-24T19:16:14.612Z,71.00
2018-01-24T19:18:51.095Z,71.30
2018-01-24T19:21:26.168Z,71.60
2018-01-24T19:24:01.638Z,72.40
2018-01-24T19:26:36.274Z,71.70
2018-01-24T19:29:16.165Z,71.90
2018-01-24T19:31:51.766Z,71.90
2018-01-24T19:34:27.419Z,71.90
2018-01-24T19:37:04.229Z,71.90
2018-01-24T19:39:40.617Z,71.70
2018-01-24T19:42:18.806Z,71.70
2018-01-24T19:44:57.745Z,71.70
2018-01-24T19:47:30.998Z,71.70
2018-01-24T19:50:05.936Z,71.70
2018-01-24T19:52:41.226Z,72.50
2018-01-24T19:55:16.379Z,72.00
2018-01-24T19:57:53.805Z,72.00
2018-01-24T20:03:14.692Z,71.90
2018-01-24T20:05:48.910Z,71.90
2018-01-24T20:08:21.165Z,71.90
2018-01-24T20:10:59.783Z,72.00
2018-01-24T20:13:33.376Z,72.00
2018-01-24T20:16:06.007Z,71.90
2018-01-24T20:18:39.145Z,72.10
2018-01-24T20:21:11.403Z,71.70
2018-01-24T20:23:43.939Z,72.20
2018-01-24T20:26:17.733Z,72.20
2018-01-24T20:28:50.673Z,72.40
2018-01-24T20:31:22.692Z,72.30
2018-01-24T20:33:54.634Z,72.40
2018-01-24T20:36:27.106Z,72.30
2018-01-24T20:38:59.140Z,72.60
2018-01-24T20:41:31.490Z,72.70
2018-01-24T20:44:05.098Z,72.90
2018-01-24T20:46:37.524Z,72.90
2018-01-24T20:49:11.000Z,72.80
2018-01-24T20:51:44.319Z,73.00
2018-01-24T20:54:17.629Z,73.10
2018-01-24T20:56:50.667Z,73.10
2018-01-24T20:59:22.796Z,73.00
2018-01-24T21:01:59.714Z,73.00
2018-01-24T21:04:34.361Z,73.00
2018-01-24T21:07:08.464Z,73.20
2018-01-24T21:09:40.721Z,73.10
2018-01-24T21:12:14.770Z,73.10
2018-01-24T21:14:51.895Z,73.00
2018-01-24T21:17:24.190Z,73.90
2018-01-24T21:19:57.537Z,73.10
2018-01-24T21:22:33.089Z,73.50
2018-01-24T21:25:08.537Z,73.20
2018-01-24T21:27:43.024Z,73.20
2018-01-24T21:30:39.129Z,73.30
2018-01-24T21:33:21.963Z,73.30
2018-01-24T21:36:02.787Z,73.40
2018-01-24T21:38:36.171Z,73.40
2018-01-24T21:41:09.643Z,73.50
2018-01-24T21:43:45.522Z,73.70
2018-01-24T21:46:19.856Z,73.90
2018-01-24T21:48:51.572Z,73.90
2018-01-24T21:51:23.080Z,74.10
2018-01-24T21:53:57.090Z,73.90
2018-01-24T21:56:28.426Z,73.90
2018-01-24T21:59:02.579Z,73.80
2018-01-24T22:01:33.931Z,73.90
2018-01-24T22:04:05.972Z,74.10
2018-01-24T22:06:37.854Z,74.20
2018-01-24T22:09:10.742Z,74.20
2018-01-24T22:11:44.489Z,74.20
2018-01-24T22:14:18.257Z,74.20
2018-01-24T22:16:50.287Z,74.20
2018-01-24T22:19:25.195Z,74.20
2018-01-24T22:21:59.935Z,74.10
2018-01-24T22:24:32.014Z,74.20
2018-01-24T22:27:03.645Z,74.30
2018-01-24T22:29:36.380Z,74.10
2018-01-24T22:32:08.750Z,74.10
2018-01-24T22:34:43.546Z,74.90
2018-01-24T22:37:15.492Z,73.90
2018-01-24T22:39:49.068Z,74.60
2018-01-24T22:42:21.249Z,74.60
2018-01-24T22:44:55.630Z,74.70
2018-01-24T22:47:28.576Z,75.90
2018-01-24T22:50:00.351Z,74.40
2018-01-24T22:52:33.455Z,74.20
2018-01-24T22:55:05.182Z,74.20
2018-01-24T22:57:38.027Z,74.10
2018-01-24T23:00:23.639Z,74.10
2018-01-24T23:03:00.282Z,74.10
2018-01-24T23:05:36.421Z,74.30
2018-01-24T23:08:09.479Z,74.80
2018-01-24T23:10:41.354Z,75.40
2018-01-24T23:13:14.277Z,75.80
2018-01-24T23:15:47.367Z,75.90
2018-01-24T23:18:21.602Z,76.10
2018-01-24T23:20:55.418Z,76.40
2018-01-24T23:23:29.221Z,76.90
2018-01-24T23:26:06.335Z,76.90
2018-01-24T23:28:38.405Z,77.40
2018-01-24T23:31:11.768Z,77.80
2018-01-24T23:33:45.427Z,77.70
2018-01-24T23:36:17.830Z,77.60
2018-01-24T23:38:50.885Z,77.80
2018-01-24T23:41:22.770Z,77.80
2018-01-24T23:43:57.372Z,77.90
2018-01-24T23:46:31.011Z,77.90
2018-01-24T23:49:03.148Z,78.10
2018-01-24T23:51:37.047Z,77.90
2018-01-24T23:54:10.811Z,78.10
2018-01-24T23:56:43.992Z,78.30
2018-01-24T23:59:17.466Z,78.30
